sensor_id;sensor_type;location;lat;lon;timestamp;temperature;humidity
52471;DHT22;38382;53.160;7.026;2023-02-01T00:00:16;5.30;99.90
52471;DHT22;38382;53.160;7.026;2023-02-01T00:02:44;5.40;99.90
52471;DHT22;38382;53.160;7.026;2023-02-01T00:05:13;5.60;99.90
52471;DHT22;38382;53.160;7.026;2023-02-01T00:10:23;4.60;99.90
52471;DHT22;38382;53.160;7.026;2023-02-01T00:12:55;5.60;99.90
52471;DHT22;38382;53.160;7.026;2023-02-01T00:15:23;5.40;99.90
52471;DHT22;38382;53.160;7.026;2023-02-01T00:18:01;5.40;99.90
52471;DHT22;38382;53.160;7.026;2023-02-01T00:20:26;5.30;99.90
52471;DHT22;38382;53.160;7.026;2023-02-01T00:22:52;5.30;99.90
52471;DHT22;38382;53.160;7.026;2023-02-01T00:25:38;5.30;99.90
52471;DHT22;38382;53.160;7.026;2023-02-01T00:28:05;5.60;99.90
52471;DHT22;38382;53.160;7.026;2023-02-01T00:30:36;5.50;99.90
52471;DHT22;38382;53.160;7.026;2023-02-01T00:33:02;5.70;99.90
52471;DHT22;38382;53.160;7.026;2023-02-01T00:35:34;5.50;99.90
52471;DHT22;38382;53.160;7.026;2023-02-01T00:38:00;4.00;99.90
52471;DHT22;38382;53.160;7.026;2023-02-01T00:40:26;5.70;99.90
52471;DHT22;38382;53.160;7.026;2023-02-01T00:43:01;5.60;99.90
52471;DHT22;38382;53.160;7.026;2023-02-01T00:53:09;5.50;99.90
52471;DHT22;38382;53.160;7.026;2023-02-01T00:55:34;5.60;99.90
52471;DHT22;38382;53.160;7.026;2023-02-01T00:58:12;5.50;99.90
52471;DHT22;38382;53.160;7.026;2023-02-01T01:00:38;4.50;99.90
52471;DHT22;38382;53.160;7.026;2023-02-01T01:03:06;5.50;99.90
52471;DHT22;38382;53.160;7.026;2023-02-01T01:05:47;5.90;99.90
52471;DHT22;38382;53.160;7.026;2023-02-01T01:08:15;5.80;99.90
52471;DHT22;38382;53.160;7.026;2023-02-01T01:10:42;5.80;99.90
52471;DHT22;38382;53.160;7.026;2023-02-01T01:13:08;5.80;99.90
52471;DHT22;38382;53.160;7.026;2023-02-01T01:15:39;5.80;99.90
52471;DHT22;38382;53.160;7.026;2023-02-01T01:18:06;5.80;99.90
52471;DHT22;38382;53.160;7.026;2023-02-01T01:20:43;5.90;99.90
52471;DHT22;38382;53.160;7.026;2023-02-01T01:23:09;5.80;99.90
52471;DHT22;38382;53.160;7.026;2023-02-01T01:25:40;5.90;99.90
52471;DHT22;38382;53.160;7.026;2023-02-01T01:28:25;5.70;99.90
52471;DHT22;38382;53.160;7.026;2023-02-01T01:31:05;5.70;99.90
52471;DHT22;38382;53.160;7.026;2023-02-01T01:33:35;5.90;99.90
52471;DHT22;38382;53.160;7.026;2023-02-01T01:36:03;5.70;99.90
52471;DHT22;38382;53.160;7.026;2023-02-01T01:38:33;5.60;99.90
52471;DHT22;38382;53.160;7.026;2023-02-01T01:46:49;5.80;99.90
52471;DHT22;38382;53.160;7.026;2023-02-01T01:49:21;5.50;99.90
52471;DHT22;38382;53.160;7.026;2023-02-01T01:51:55;5.70;99.90
52471;DHT22;38382;53.160;7.026;2023-02-01T01:56:53;5.70;99.90
52471;DHT22;38382;53.160;7.026;2023-02-01T01:59:22;5.60;99.90
52471;DHT22;38382;53.160;7.026;2023-02-01T02:01:49;4.30;99.90
52471;DHT22;38382;53.160;7.026;2023-02-01T02:04:23;5.50;99.90
52471;DHT22;38382;53.160;7.026;2023-02-01T02:07:05;5.60;99.90
52471;DHT22;38382;53.160;7.026;2023-02-01T02:09:38;5.50;99.90
52471;DHT22;38382;53.160;7.026;2023-02-01T02:15:06;4.70;99.90
52471;DHT22;38382;53.160;7.026;2023-02-01T02:20:51;5.60;99.90
52471;DHT22;38382;53.160;7.026;2023-02-01T02:24:25;5.50;99.90
52471;DHT22;38382;53.160;7.026;2023-02-01T02:34:50;4.40;99.90
52471;DHT22;38382;53.160;7.026;2023-02-01T02:40:36;5.30;99.90
52471;DHT22;38382;53.160;7.026;2023-02-01T02:43:36;5.20;99.90
52471;DHT22;38382;53.160;7.026;2023-02-01T02:46:37;5.30;99.90
52471;DHT22;38382;53.160;7.026;2023-02-01T02:49:27;5.20;99.90
52471;DHT22;38382;53.160;7.026;2023-02-01T02:52:19;6.20;99.90
52471;DHT22;38382;53.160;7.026;2023-02-01T02:55:05;5.20;99.90
52471;DHT22;38382;53.160;7.026;2023-02-01T02:57:39;5.40;99.90
52471;DHT22;38382;53.160;7.026;2023-02-01T03:00:31;5.40;99.90
52471;DHT22;38382;53.160;7.026;2023-02-01T03:03:38;5.40;99.90
52471;DHT22;38382;53.160;7.026;2023-02-01T03:06:25;4.70;99.90
52471;DHT22;38382;53.160;7.026;2023-02-01T03:12:09;6.00;99.90
52471;DHT22;38382;53.160;7.026;2023-02-01T03:15:00;6.20;99.90
52471;DHT22;38382;53.160;7.026;2023-02-01T03:17:32;5.30;99.90
52471;DHT22;38382;53.160;7.026;2023-02-01T03:20:01;5.10;99.90
52471;DHT22;38382;53.160;7.026;2023-02-01T03:22:28;5.30;99.90
52471;DHT22;38382;53.160;7.026;2023-02-01T03:28:17;5.40;99.90
52471;DHT22;38382;53.160;7.026;2023-02-01T03:30:46;5.20;99.90
52471;DHT22;38382;53.160;7.026;2023-02-01T03:33:20;6.60;99.90
52471;DHT22;38382;53.160;7.026;2023-02-01T03:44:24;5.40;99.90
52471;DHT22;38382;53.160;7.026;2023-02-01T03:47:08;5.70;99.90
52471;DHT22;38382;53.160;7.026;2023-02-01T03:50:12;5.50;99.90
52471;DHT22;38382;53.160;7.026;2023-02-01T03:52:40;5.50;99.90
52471;DHT22;38382;53.160;7.026;2023-02-01T03:55:08;6.00;99.90
52471;DHT22;38382;53.160;7.026;2023-02-01T03:57:57;5.80;99.90
52471;DHT22;38382;53.160;7.026;2023-02-01T04:00:34;5.60;99.90
52471;DHT22;38382;53.160;7.026;2023-02-01T04:03:04;6.20;99.90
52471;DHT22;38382;53.160;7.026;2023-02-01T04:05:30;5.60;99.90
52471;DHT22;38382;53.160;7.026;2023-02-01T04:07:56;5.40;99.90
52471;DHT22;38382;53.160;7.026;2023-02-01T04:10:33;5.70;99.90
52471;DHT22;38382;53.160;7.026;2023-02-01T04:12:58;5.50;99.90
52471;DHT22;38382;53.160;7.026;2023-02-01T04:15:24;5.50;99.90
52471;DHT22;38382;53.160;7.026;2023-02-01T04:17:50;5.50;99.90
52471;DHT22;38382;53.160;7.026;2023-02-01T04:20:22;5.50;99.90
52471;DHT22;38382;53.160;7.026;2023-02-01T04:22:51;5.50;99.90
52471;DHT22;38382;53.160;7.026;2023-02-01T04:25:20;5.60;99.90
52471;DHT22;38382;53.160;7.026;2023-02-01T04:34:33;6.90;99.90
52471;DHT22;38382;53.160;7.026;2023-02-01T04:37:43;5.60;99.90
52471;DHT22;38382;53.160;7.026;2023-02-01T04:40:09;5.40;99.90
52471;DHT22;38382;53.160;7.026;2023-02-01T04:42:35;5.30;99.90
52471;DHT22;38382;53.160;7.026;2023-02-01T04:45:01;5.60;99.90
52471;DHT22;38382;53.160;7.026;2023-02-01T04:47:27;5.50;99.90
52471;DHT22;38382;53.160;7.026;2023-02-01T04:49:52;5.50;99.90
52471;DHT22;38382;53.160;7.026;2023-02-01T04:52:21;6.50;99.90
52471;DHT22;38382;53.160;7.026;2023-02-01T04:54:47;5.60;99.90
52471;DHT22;38382;53.160;7.026;2023-02-01T04:57:13;5.60;99.90
52471;DHT22;38382;53.160;7.026;2023-02-01T04:59:40;5.90;99.90
52471;DHT22;38382;53.160;7.026;2023-02-01T05:02:06;5.50;99.90
52471;DHT22;38382;53.160;7.026;2023-02-01T05:04:32;5.80;99.90
52471;DHT22;38382;53.160;7.026;2023-02-01T05:06:57;5.60;99.90
52471;DHT22;38382;53.160;7.026;2023-02-01T05:09:23;5.60;99.90
52471;DHT22;38382;53.160;7.026;2023-02-01T05:11:49;5.50;99.90
52471;DHT22;38382;53.160;7.026;2023-02-01T05:14:33;5.70;99.90
52471;DHT22;38382;53.160;7.026;2023-02-01T05:16:59;5.70;99.90
52471;DHT22;38382;53.160;7.026;2023-02-01T05:19:25;5.50;99.90
52471;DHT22;38382;53.160;7.026;2023-02-01T05:21:50;5.70;99.90
52471;DHT22;38382;53.160;7.026;2023-02-01T05:24:16;5.60;99.90
52471;DHT22;38382;53.160;7.026;2023-02-01T05:26:49;5.70;99.90
52471;DHT22;38382;53.160;7.026;2023-02-01T05:29:15;4.90;99.90
52471;DHT22;38382;53.160;7.026;2023-02-01T05:31:45;5.70;99.90
52471;DHT22;38382;53.160;7.026;2023-02-01T05:34:17;5.80;99.90
52471;DHT22;38382;53.160;7.026;2023-02-01T05:36:42;5.50;99.90
52471;DHT22;38382;53.160;7.026;2023-02-01T05:39:08;5.80;99.90
52471;DHT22;38382;53.160;7.026;2023-02-01T05:41:35;5.60;99.90
52471;DHT22;38382;53.160;7.026;2023-02-01T05:44:01;5.70;99.90
52471;DHT22;38382;53.160;7.026;2023-02-01T05:46:28;5.70;99.90
52471;DHT22;38382;53.160;7.026;2023-02-01T05:48:54;5.70;99.90
52471;DHT22;38382;53.160;7.026;2023-02-01T05:51:22;5.60;99.90
52471;DHT22;38382;53.160;7.026;2023-02-01T05:53:47;5.70;99.90
52471;DHT22;38382;53.160;7.026;2023-02-01T05:56:13;5.80;99.90
52471;DHT22;38382;53.160;7.026;2023-02-01T05:58:39;5.80;99.90
52471;DHT22;38382;53.160;7.026;2023-02-01T06:01:05;5.70;99.90
52471;DHT22;38382;53.160;7.026;2023-02-01T06:03:30;5.70;99.90
52471;DHT22;38382;53.160;7.026;2023-02-01T06:05:56;5.90;99.90
52471;DHT22;38382;53.160;7.026;2023-02-01T06:08:22;5.90;99.90
52471;DHT22;38382;53.160;7.026;2023-02-01T06:10:50;5.70;99.90
52471;DHT22;38382;53.160;7.026;2023-02-01T06:13:30;5.70;99.90
52471;DHT22;38382;53.160;7.026;2023-02-01T06:15:58;5.70;99.90
52471;DHT22;38382;53.160;7.026;2023-02-01T06:18:30;4.90;99.90
52471;DHT22;38382;53.160;7.026;2023-02-01T06:21:03;5.80;99.90
52471;DHT22;38382;53.160;7.026;2023-02-01T06:23:31;5.90;99.90
52471;DHT22;38382;53.160;7.026;2023-02-01T06:26:03;5.70;99.90
52471;DHT22;38382;53.160;7.026;2023-02-01T06:31:34;4.50;99.90
52471;DHT22;38382;53.160;7.026;2023-02-01T06:37:56;6.50;99.90
52471;DHT22;38382;53.160;7.026;2023-02-01T06:40:31;5.70;99.90
52471;DHT22;38382;53.160;7.026;2023-02-01T06:43:06;5.50;99.90
52471;DHT22;38382;53.160;7.026;2023-02-01T06:53:25;6.10;99.90
52471;DHT22;38382;53.160;7.026;2023-02-01T07:11:46;5.50;99.90
52471;DHT22;38382;53.160;7.026;2023-02-01T07:14:12;5.60;99.90
52471;DHT22;38382;53.160;7.026;2023-02-01T07:16:38;5.70;99.90
52471;DHT22;38382;53.160;7.026;2023-02-01T07:19:04;5.50;99.90
52471;DHT22;38382;53.160;7.026;2023-02-01T07:21:36;5.60;99.90
52471;DHT22;38382;53.160;7.026;2023-02-01T07:24:09;5.70;99.90
52471;DHT22;38382;53.160;7.026;2023-02-01T07:26:45;6.00;99.90
52471;DHT22;38382;53.160;7.026;2023-02-01T07:29:51;5.60;99.90
52471;DHT22;38382;53.160;7.026;2023-02-01T07:32:32;5.80;99.90
52471;DHT22;38382;53.160;7.026;2023-02-01T07:34:58;5.70;99.90
52471;DHT22;38382;53.160;7.026;2023-02-01T07:37:24;5.90;99.90
52471;DHT22;38382;53.160;7.026;2023-02-01T07:39:51;6.20;99.90
52471;DHT22;38382;53.160;7.026;2023-02-01T07:42:17;5.80;99.90
52471;DHT22;38382;53.160;7.026;2023-02-01T07:48:22;4.20;99.90
52471;DHT22;38382;53.160;7.026;2023-02-01T07:50:48;6.00;99.90
52471;DHT22;38382;53.160;7.026;2023-02-01T07:53:14;5.80;99.90
52471;DHT22;38382;53.160;7.026;2023-02-01T07:55:40;6.00;99.90
52471;DHT22;38382;53.160;7.026;2023-02-01T08:01:55;7.00;99.90
52471;DHT22;38382;53.160;7.026;2023-02-01T08:04:23;6.00;99.90
52471;DHT22;38382;53.160;7.026;2023-02-01T08:06:49;6.30;99.90
52471;DHT22;38382;53.160;7.026;2023-02-01T08:10:12;6.10;99.90
52471;DHT22;38382;53.160;7.026;2023-02-01T08:13:08;6.00;99.90
52471;DHT22;38382;53.160;7.026;2023-02-01T08:19:40;6.70;99.90
52471;DHT22;38382;53.160;7.026;2023-02-01T08:24:56;7.20;99.90
52471;DHT22;38382;53.160;7.026;2023-02-01T08:28:02;6.20;99.90
52471;DHT22;38382;53.160;7.026;2023-02-01T08:31:20;5.30;99.90
52471;DHT22;38382;53.160;7.026;2023-02-01T08:34:04;6.00;99.90
52471;DHT22;38382;53.160;7.026;2023-02-01T08:36:41;6.00;99.90
52471;DHT22;38382;53.160;7.026;2023-02-01T08:39:09;5.90;99.90
52471;DHT22;38382;53.160;7.026;2023-02-01T08:52:37;6.90;99.90
52471;DHT22;38382;53.160;7.026;2023-02-01T09:02:31;4.40;99.90
52471;DHT22;38382;53.160;7.026;2023-02-01T09:05:33;6.50;99.90
52471;DHT22;38382;53.160;7.026;2023-02-01T09:08:22;7.70;99.90
52471;DHT22;38382;53.160;7.026;2023-02-01T09:26:04;7.20;99.90
52471;DHT22;38382;53.160;7.026;2023-02-01T09:28:48;5.10;99.90
52471;DHT22;38382;53.160;7.026;2023-02-01T09:31:17;6.20;99.90
52471;DHT22;38382;53.160;7.026;2023-02-01T09:48:34;6.10;99.90
52471;DHT22;38382;53.160;7.026;2023-02-01T09:51:12;7.70;99.90
52471;DHT22;38382;53.160;7.026;2023-02-01T09:53:45;6.80;99.90
52471;DHT22;38382;53.160;7.026;2023-02-01T09:56:42;6.10;99.90
52471;DHT22;38382;53.160;7.026;2023-02-01T10:02:17;7.30;99.90
52471;DHT22;38382;53.160;7.026;2023-02-01T10:04:57;6.20;99.90
52471;DHT22;38382;53.160;7.026;2023-02-01T10:18:32;7.00;99.90
52471;DHT22;38382;53.160;7.026;2023-02-01T10:26:53;5.90;99.90
52471;DHT22;38382;53.160;7.026;2023-02-01T10:29:26;6.00;99.90
52471;DHT22;38382;53.160;7.026;2023-02-01T10:31:53;5.90;99.90
52471;DHT22;38382;53.160;7.026;2023-02-01T10:34:27;5.70;99.90
52471;DHT22;38382;53.160;7.026;2023-02-01T10:39:48;6.00;99.90
52471;DHT22;38382;53.160;7.026;2023-02-01T10:42:22;5.90;99.90
52471;DHT22;38382;53.160;7.026;2023-02-01T10:45:11;4.80;99.90
52471;DHT22;38382;53.160;7.026;2023-02-01T10:47:40;6.00;99.90
52471;DHT22;38382;53.160;7.026;2023-02-01T10:56:38;5.70;99.90
52471;DHT22;38382;53.160;7.026;2023-02-01T10:59:06;5.80;99.90
52471;DHT22;38382;53.160;7.026;2023-02-01T11:01:47;5.90;99.90
52471;DHT22;38382;53.160;7.026;2023-02-01T11:04:17;4.50;99.90
52471;DHT22;38382;53.160;7.026;2023-02-01T11:07:18;6.10;99.90
52471;DHT22;38382;53.160;7.026;2023-02-01T11:09:55;6.10;99.90
52471;DHT22;38382;53.160;7.026;2023-02-01T11:12:37;6.10;99.90
52471;DHT22;38382;53.160;7.026;2023-02-01T11:15:25;5.10;99.90
52471;DHT22;38382;53.160;7.026;2023-02-01T11:22:26;5.50;99.90
52471;DHT22;38382;53.160;7.026;2023-02-01T11:28:39;7.20;99.90
52471;DHT22;38382;53.160;7.026;2023-02-01T11:31:21;6.90;99.90
52471;DHT22;38382;53.160;7.026;2023-02-01T11:37:22;6.50;99.90
52471;DHT22;38382;53.160;7.026;2023-02-01T11:46:17;4.50;99.90
52471;DHT22;38382;53.160;7.026;2023-02-01T12:04:43;2.80;99.90
52471;DHT22;38382;53.160;7.026;2023-02-01T12:07:20;3.20;99.90
52471;DHT22;38382;53.160;7.026;2023-02-01T12:38:55;3.50;99.90
52471;DHT22;38382;53.160;7.026;2023-02-01T12:42:03;2.20;99.90
52471;DHT22;38382;53.160;7.026;2023-02-01T12:47:18;4.60;99.90
52471;DHT22;38382;53.160;7.026;2023-02-01T12:52:44;4.00;99.90
52471;DHT22;38382;53.160;7.026;2023-02-01T12:57:46;4.60;99.90
52471;DHT22;38382;53.160;7.026;2023-02-01T13:04:17;5.60;99.90
52471;DHT22;38382;53.160;7.026;2023-02-01T13:07:14;4.90;99.90
52471;DHT22;38382;53.160;7.026;2023-02-01T13:09:57;5.60;99.90
52471;DHT22;38382;53.160;7.026;2023-02-01T13:12:38;4.70;99.90
52471;DHT22;38382;53.160;7.026;2023-02-01T13:15:23;5.50;99.90
52471;DHT22;38382;53.160;7.026;2023-02-01T13:17:52;5.60;99.90
52471;DHT22;38382;53.160;7.026;2023-02-01T13:20:35;6.20;99.90
52471;DHT22;38382;53.160;7.026;2023-02-01T13:23:25;7.10;99.90
52471;DHT22;38382;53.160;7.026;2023-02-01T13:25:53;7.20;99.90
52471;DHT22;38382;53.160;7.026;2023-02-01T13:28:56;7.40;99.90
52471;DHT22;38382;53.160;7.026;2023-02-01T13:42:24;7.50;99.90
52471;DHT22;38382;53.160;7.026;2023-02-01T13:45:21;7.30;99.90
52471;DHT22;38382;53.160;7.026;2023-02-01T13:47:52;7.30;99.90
52471;DHT22;38382;53.160;7.026;2023-02-01T13:50:30;7.40;99.90
52471;DHT22;38382;53.160;7.026;2023-02-01T13:56:03;7.40;99.90
52471;DHT22;38382;53.160;7.026;2023-02-01T13:58:45;7.40;99.90
52471;DHT22;38382;53.160;7.026;2023-02-01T14:06:39;7.50;99.90
52471;DHT22;38382;53.160;7.026;2023-02-01T14:11:45;7.50;99.90
52471;DHT22;38382;53.160;7.026;2023-02-01T14:16:43;7.30;99.90
52471;DHT22;38382;53.160;7.026;2023-02-01T14:19:26;7.50;99.90
52471;DHT22;38382;53.160;7.026;2023-02-01T14:22:32;7.40;99.90
52471;DHT22;38382;53.160;7.026;2023-02-01T14:24:59;6.90;99.90
52471;DHT22;38382;53.160;7.026;2023-02-01T14:31:46;6.70;99.90
52471;DHT22;38382;53.160;7.026;2023-02-01T14:35:18;7.30;99.90
52471;DHT22;38382;53.160;7.026;2023-02-01T14:37:45;7.20;99.90
52471;DHT22;38382;53.160;7.026;2023-02-01T14:40:33;7.30;99.90
52471;DHT22;38382;53.160;7.026;2023-02-01T14:46:10;7.20;99.90
52471;DHT22;38382;53.160;7.026;2023-02-01T14:49:10;7.40;99.90
52471;DHT22;38382;53.160;7.026;2023-02-01T14:51:37;7.10;99.90
52471;DHT22;38382;53.160;7.026;2023-02-01T14:54:25;7.20;99.90
52471;DHT22;38382;53.160;7.026;2023-02-01T15:00:07;7.10;99.90
52471;DHT22;38382;53.160;7.026;2023-02-01T17:44:30;5.70;99.90
52471;DHT22;38382;53.160;7.026;2023-02-01T17:58:46;6.50;99.90
52471;DHT22;38382;53.160;7.026;2023-02-01T18:01:36;6.10;99.90
52471;DHT22;38382;53.160;7.026;2023-02-01T18:04:36;6.10;99.90
52471;DHT22;38382;53.160;7.026;2023-02-01T18:07:09;6.00;99.90
52471;DHT22;38382;53.160;7.026;2023-02-01T18:09:37;6.00;99.90
52471;DHT22;38382;53.160;7.026;2023-02-01T18:12:36;6.00;99.90
52471;DHT22;38382;53.160;7.026;2023-02-01T18:15:31;5.50;99.90
52471;DHT22;38382;53.160;7.026;2023-02-01T18:18:12;4.90;99.90
52471;DHT22;38382;53.160;7.026;2023-02-01T18:20:57;5.90;99.90
52471;DHT22;38382;53.160;7.026;2023-02-01T18:27:30;5.60;99.90
52471;DHT22;38382;53.160;7.026;2023-02-01T18:34:19;6.10;99.90
52471;DHT22;38382;53.160;7.026;2023-02-01T19:22:42;5.10;99.90
52471;DHT22;38382;53.160;7.026;2023-02-01T19:25:47;5.80;99.90
52471;DHT22;38382;53.160;7.026;2023-02-01T19:28:22;5.50;99.90
52471;DHT22;38382;53.160;7.026;2023-02-01T19:31:55;5.70;99.90
52471;DHT22;38382;53.160;7.026;2023-02-01T19:34:39;5.50;99.90
52471;DHT22;38382;53.160;7.026;2023-02-01T19:37:06;5.50;99.90
52471;DHT22;38382;53.160;7.026;2023-02-01T19:39:32;6.20;99.90
52471;DHT22;38382;53.160;7.026;2023-02-01T19:42:04;5.30;99.90
52471;DHT22;38382;53.160;7.026;2023-02-01T19:44:35;6.40;99.90
52471;DHT22;38382;53.160;7.026;2023-02-01T19:47:03;5.40;99.90
52471;DHT22;38382;53.160;7.026;2023-02-01T20:44:28;5.10;99.90
52471;DHT22;38382;53.160;7.026;2023-02-01T21:09:22;5.50;99.90
52471;DHT22;38382;53.160;7.026;2023-02-01T21:43:45;5.50;99.90
52471;DHT22;38382;53.160;7.026;2023-02-01T22:13:30;5.60;99.90
52471;DHT22;38382;53.160;7.026;2023-02-01T22:16:13;5.50;99.90
52471;DHT22;38382;53.160;7.026;2023-02-01T22:42:26;4.10;99.90
52471;DHT22;38382;53.160;7.026;2023-02-01T23:26:49;5.00;99.90
